createdAt,value
2017-09-16T00:01:16.037Z,5.37
2017-09-16T00:03:50.342Z,4.50
2017-09-16T00:06:17.073Z,5.17
2017-09-16T00:09:04.466Z,3.77
2017-09-16T00:11:35.123Z,4.37
2017-09-16T00:14:04.629Z,5.47
2017-09-16T00:16:30.724Z,5.47
2017-09-16T00:18:57.711Z,4.47
2017-09-16T00:21:23.758Z,19.30
2017-09-16T00:23:50.498Z,5.30
2017-09-16T00:26:21.241Z,5.90
2017-09-16T00:28:47.897Z,15.83
2017-09-16T00:31:21.192Z,6.40
2017-09-16T00:33:48.929Z,7.60
2017-09-16T00:36:14.966Z,8.10
2017-09-16T00:38:41.022Z,16.80
2017-09-16T00:41:09.794Z,5.60
2017-09-16T00:43:38.477Z,5.73
2017-09-16T00:46:12.427Z,5.30
2017-09-16T00:48:44.255Z,6.57
2017-09-16T00:51:10.278Z,9.30
2017-09-16T00:53:40.710Z,12.50
2017-09-16T00:56:11.022Z,10.63
2017-09-16T00:58:37.073Z,5.33
2017-09-16T01:01:05.782Z,23.17
2017-09-16T01:03:39.198Z,193.40
2017-09-16T01:06:10.689Z,6.43
2017-09-16T01:08:36.718Z,6.67
2017-09-16T01:11:05.438Z,6.17
2017-09-16T01:13:32.165Z,5.53
2017-09-16T01:15:58.105Z,7.87
2017-09-16T01:18:24.838Z,6.00
2017-09-16T01:20:50.893Z,9.40
2017-09-16T01:23:17.602Z,12.47
2017-09-16T01:25:47.361Z,6.53
2017-09-16T01:28:20.842Z,10.57
2017-09-16T01:30:53.301Z,13.53
2017-09-16T01:33:19.345Z,8.60
2017-09-16T01:35:45.377Z,8.50
2017-09-16T01:38:11.305Z,6.33
2017-09-16T01:40:43.561Z,13.77
2017-09-16T01:43:09.599Z,8.23
2017-09-16T01:45:35.626Z,7.33
2017-09-16T01:48:01.649Z,10.90
2017-09-16T01:50:30.946Z,9.90
2017-09-16T01:52:56.888Z,26.97
2017-09-16T01:55:22.915Z,42.50
2017-09-16T01:57:52.642Z,27.23
2017-09-16T02:00:30.957Z,121.60
2017-09-16T02:02:58.698Z,37.27
2017-09-16T02:05:24.605Z,44.27
2017-09-16T02:07:51.582Z,92.63
2017-09-16T02:10:17.606Z,36.73
2017-09-16T02:12:43.653Z,31.57
2017-09-16T02:15:09.589Z,30.37
2017-09-16T02:17:38.365Z,46.70
2017-09-16T02:20:04.398Z,9.37
2017-09-16T02:22:32.370Z,15.13
2017-09-16T02:24:58.389Z,30.27
2017-09-16T02:27:24.441Z,69.30
2017-09-16T02:29:50.461Z,51.43
2017-09-16T02:32:20.066Z,62.53
2017-09-16T02:34:47.027Z,24.33
2017-09-16T02:37:13.692Z,162.33
2017-09-16T02:39:40.705Z,73.50
2017-09-16T02:42:06.754Z,88.90
2017-09-16T02:44:44.360Z,39.80
2017-09-16T02:47:12.106Z,81.47
2017-09-16T02:49:39.049Z,36.27
2017-09-16T02:52:05.093Z,255.87
2017-09-16T02:54:42.581Z,57.80
2017-09-16T02:57:13.929Z,160.17
2017-09-16T02:59:39.966Z,212.70
2017-09-16T03:02:06.630Z,236.53
2017-09-16T03:04:39.597Z,180.27
2017-09-16T03:07:13.214Z,153.60
2017-09-16T03:09:41.973Z,69.73
2017-09-16T03:12:08.019Z,11.37
2017-09-16T03:14:33.925Z,27.23
2017-09-16T03:16:59.987Z,240.40
2017-09-16T03:19:26.712Z,100.60
2017-09-16T03:21:52.727Z,118.53
2017-09-16T03:24:18.662Z,63.77
2017-09-16T03:26:44.701Z,159.33
2017-09-16T03:29:10.724Z,156.60
2017-09-16T03:31:36.745Z,73.00
2017-09-16T03:34:02.786Z,60.87
2017-09-16T03:36:28.814Z,29.40
2017-09-16T03:38:54.909Z,78.70
2017-09-16T03:41:31.742Z,37.90
2017-09-16T03:43:58.469Z,14.30
2017-09-16T03:46:24.534Z,29.10
2017-09-16T03:48:51.570Z,28.73
2017-09-16T03:51:18.282Z,38.53
2017-09-16T03:53:44.229Z,27.23
2017-09-16T03:56:14.581Z,102.37
2017-09-16T03:58:43.337Z,99.80
2017-09-16T04:01:09.373Z,45.67
2017-09-16T04:03:35.310Z,8.33
2017-09-16T04:06:02.262Z,129.60
2017-09-16T04:08:30.947Z,81.50
2017-09-16T04:10:58.931Z,31.97
2017-09-16T04:13:25.662Z,18.10
2017-09-16T04:15:51.687Z,13.57
2017-09-16T04:18:17.714Z,103.73
2017-09-16T04:20:43.649Z,14.97
2017-09-16T04:23:12.765Z,18.53
2017-09-16T04:25:40.517Z,53.40
2017-09-16T04:28:07.458Z,61.70
2017-09-16T04:30:35.429Z,74.90
2017-09-16T04:33:11.968Z,16.23
2017-09-16T04:35:41.612Z,26.30
2017-09-16T04:38:08.494Z,23.37
2017-09-16T04:40:38.372Z,123.40
2017-09-16T04:43:05.345Z,266.43
2017-09-16T04:45:38.362Z,84.40
2017-09-16T04:48:06.098Z,64.33
2017-09-16T04:50:33.142Z,53.37
2017-09-16T04:52:59.177Z,113.30
2017-09-16T04:55:25.190Z,131.47
2017-09-16T04:57:53.189Z,78.83
2017-09-16T05:00:23.910Z,109.87
2017-09-16T05:02:50.861Z,52.60
2017-09-16T05:05:16.889Z,163.87
2017-09-16T05:07:42.970Z,48.67
2017-09-16T05:10:09.981Z,42.53
2017-09-16T05:12:36.023Z,118.57
2017-09-16T05:15:02.819Z,19.27
2017-09-16T05:17:31.991Z,54.30
2017-09-16T05:19:57.925Z,76.73
2017-09-16T05:22:24.940Z,62.27
2017-09-16T05:24:51.897Z,261.27
2017-09-16T05:27:20.690Z,383.30
2017-09-16T05:29:47.645Z,101.90
2017-09-16T05:32:25.962Z,92.43
2017-09-16T05:34:59.561Z,252.73
2017-09-16T05:37:26.225Z,263.07
2017-09-16T05:39:52.213Z,77.63
2017-09-16T05:42:18.237Z,85.73
2017-09-16T05:44:44.340Z,108.33
2017-09-16T05:47:11.325Z,166.03
2017-09-16T05:49:37.349Z,52.20
2017-09-16T05:52:03.394Z,35.03
2017-09-16T05:54:33.317Z,48.73
2017-09-16T05:57:07.672Z,33.83
2017-09-16T05:59:34.681Z,12.50
2017-09-16T06:02:01.650Z,5.50
2017-09-16T06:04:33.297Z,3.73
2017-09-16T06:07:01.974Z,6.00
2017-09-16T06:09:28.027Z,5.67
2017-09-16T06:11:58.536Z,4.27
2017-09-16T06:14:31.062Z,3.50
2017-09-16T06:17:03.917Z,6.97
2017-09-16T06:19:30.950Z,5.77
2017-09-16T06:22:08.049Z,3.17
2017-09-16T06:24:40.602Z,4.07
2017-09-16T06:27:12.376Z,4.20
2017-09-16T06:29:40.345Z,3.77
2017-09-16T06:32:06.394Z,4.53
2017-09-16T06:34:33.139Z,5.13
2017-09-16T06:37:07.769Z,4.30
2017-09-16T06:39:35.517Z,3.13
2017-09-16T06:42:02.464Z,4.40
2017-09-16T06:44:35.899Z,6.67
2017-09-16T06:47:05.670Z,5.90
2017-09-16T06:49:32.781Z,6.93
2017-09-16T06:52:04.994Z,10.40
2017-09-16T06:54:31.052Z,7.60
2017-09-16T06:57:04.869Z,6.67
2017-09-16T06:59:42.349Z,8.87
2017-09-16T07:02:29.766Z,61.07
2017-09-16T07:04:57.527Z,38.13
2017-09-16T07:07:28.149Z,15.10
2017-09-16T07:09:56.226Z,45.77
2017-09-16T07:12:33.256Z,30.77
2017-09-16T07:14:59.185Z,69.20
2017-09-16T07:17:27.293Z,67.43
2017-09-16T07:19:53.217Z,61.03
2017-09-16T07:22:21.870Z,44.37
2017-09-16T07:24:47.811Z,22.80
2017-09-16T07:27:13.801Z,25.43
2017-09-16T07:29:40.485Z,28.23
2017-09-16T07:32:06.417Z,36.10
2017-09-16T07:34:32.354Z,41.17
2017-09-16T07:36:58.322Z,44.77
2017-09-16T07:39:25.018Z,30.30
2017-09-16T07:41:51.713Z,32.37
2017-09-16T07:44:18.382Z,35.23
2017-09-16T07:46:44.487Z,40.77
2017-09-16T07:49:14.897Z,34.90
2017-09-16T07:51:48.154Z,22.83
2017-09-16T07:54:15.226Z,29.47
2017-09-16T07:56:55.142Z,22.83
2017-09-16T07:59:26.177Z,30.30
2017-09-16T08:01:52.134Z,26.60
2017-09-16T08:04:18.688Z,34.53
2017-09-16T08:06:44.629Z,26.13
2017-09-16T08:09:11.325Z,27.60
2017-09-16T08:11:43.680Z,23.93
2017-09-16T08:14:15.230Z,25.73
2017-09-16T08:16:42.965Z,22.73
2017-09-16T08:19:08.930Z,18.97
2017-09-16T08:21:35.666Z,13.07
2017-09-16T08:24:02.340Z,14.93
2017-09-16T08:26:31.398Z,14.73
2017-09-16T08:28:57.326Z,12.10
2017-09-16T08:31:27.354Z,16.40
2017-09-16T08:33:54.029Z,15.40
2017-09-16T08:36:20.005Z,16.37
2017-09-16T08:38:51.694Z,21.43
2017-09-16T08:41:19.376Z,21.50
2017-09-16T08:43:48.537Z,19.10
2017-09-16T08:46:14.589Z,24.07
2017-09-16T08:48:45.849Z,13.03
2017-09-16T08:51:12.571Z,16.10
2017-09-16T08:53:39.522Z,14.93
2017-09-16T08:56:05.450Z,14.40
2017-09-16T08:58:32.381Z,22.53
2017-09-16T09:00:59.353Z,20.00
2017-09-16T09:03:25.266Z,18.50
2017-09-16T09:05:51.298Z,15.67
2017-09-16T09:08:17.334Z,12.70
2017-09-16T09:10:43.293Z,13.73
2017-09-16T09:13:16.285Z,13.27
2017-09-16T09:15:42.289Z,12.40
2017-09-16T09:18:10.971Z,13.20
2017-09-16T09:20:44.553Z,13.37
2017-09-16T09:23:12.533Z,16.03
2017-09-16T09:25:38.501Z,14.73
2017-09-16T09:28:07.799Z,18.20
2017-09-16T09:30:41.097Z,15.50
2017-09-16T09:33:12.830Z,11.73
2017-09-16T09:35:38.878Z,16.87
2017-09-16T09:38:05.553Z,18.80
2017-09-16T09:40:38.118Z,17.17
2017-09-16T09:43:05.142Z,13.20
2017-09-16T09:45:35.357Z,10.17
2017-09-16T09:48:01.300Z,13.90
2017-09-16T09:50:34.106Z,11.73
2017-09-16T09:53:01.129Z,14.43
2017-09-16T09:55:27.067Z,11.60
2017-09-16T09:57:55.782Z,10.33
2017-09-16T10:00:23.841Z,12.53
2017-09-16T10:02:51.646Z,10.17
2017-09-16T10:05:22.748Z,9.30
2017-09-16T10:07:50.539Z,5.53
2017-09-16T10:10:16.494Z,10.03
2017-09-16T10:12:42.519Z,6.10
2017-09-16T10:15:08.487Z,7.60
2017-09-16T10:17:34.517Z,8.10
2017-09-16T10:20:01.422Z,5.23
2017-09-16T10:22:27.450Z,4.53
2017-09-16T10:24:53.393Z,7.40
2017-09-16T10:27:19.326Z,4.63
2017-09-16T10:29:45.274Z,4.97
2017-09-16T10:32:11.220Z,5.27
2017-09-16T10:34:37.938Z,6.67
2017-09-16T10:37:03.882Z,5.40
2017-09-16T10:39:31.715Z,8.50
2017-09-16T10:41:57.692Z,4.17
2017-09-16T10:44:28.011Z,3.40
2017-09-16T10:46:53.992Z,5.07
2017-09-16T10:49:19.972Z,7.20
2017-09-16T10:51:46.667Z,2.73
2017-09-16T10:54:12.649Z,3.83
2017-09-16T10:56:42.643Z,3.33
2017-09-16T10:59:11.930Z,2.80
2017-09-16T11:01:37.854Z,2.00
2017-09-16T11:04:03.790Z,6.03
2017-09-16T11:06:31.460Z,5.30
2017-09-16T11:08:57.466Z,3.00
2017-09-16T11:11:23.429Z,4.07
2017-09-16T11:13:53.162Z,7.00
2017-09-16T11:16:19.835Z,2.30
2017-09-16T11:18:45.826Z,4.13
2017-09-16T11:21:13.502Z,5.30
2017-09-16T11:23:42.289Z,6.30
2017-09-16T11:26:17.855Z,3.57
2017-09-16T11:28:44.546Z,2.83
2017-09-16T11:31:16.975Z,4.40
2017-09-16T11:33:45.788Z,3.23
2017-09-16T11:36:28.901Z,2.50
2017-09-16T11:38:54.841Z,4.53
2017-09-16T11:41:20.851Z,5.73
2017-09-16T11:43:50.637Z,3.30
2017-09-16T11:46:23.078Z,8.57
2017-09-16T11:49:10.514Z,4.80
2017-09-16T11:51:36.459Z,2.60
2017-09-16T11:54:15.666Z,3.93
2017-09-16T11:56:42.725Z,8.93
2017-09-16T11:59:08.877Z,4.23
2017-09-16T12:01:48.447Z,7.13
2017-09-16T12:04:16.489Z,14.40
2017-09-16T12:07:02.606Z,3.60
2017-09-16T12:09:39.072Z,5.47
2017-09-16T12:12:08.651Z,4.00
2017-09-16T12:14:59.658Z,2.20
2017-09-16T12:17:27.414Z,3.07
2017-09-16T12:19:53.464Z,14.73
2017-09-16T12:22:23.570Z,3.23
2017-09-16T12:24:50.310Z,2.47
2017-09-16T12:27:34.205Z,6.07
2017-09-16T12:30:07.814Z,2.30
2017-09-16T12:32:34.840Z,2.03
2017-09-16T12:35:07.197Z,1.73
2017-09-16T12:37:36.007Z,1.47
2017-09-16T12:40:15.264Z,3.80
2017-09-16T12:43:02.181Z,2.87
2017-09-16T12:45:31.524Z,4.83
2017-09-16T12:47:59.296Z,1.57
2017-09-16T12:50:32.502Z,4.70
2017-09-16T12:53:03.004Z,3.20
2017-09-16T12:55:31.009Z,1.40
2017-09-16T12:58:22.163Z,4.57
2017-09-16T13:00:55.826Z,1.63
2017-09-16T13:03:30.341Z,1.67
2017-09-16T13:06:02.922Z,1.23
2017-09-16T13:08:30.893Z,3.60
2017-09-16T13:10:57.935Z,2.40
2017-09-16T13:13:24.692Z,2.40
2017-09-16T13:15:51.810Z,3.03
2017-09-16T13:18:19.919Z,2.50
2017-09-16T13:20:49.466Z,3.63
2017-09-16T13:23:16.452Z,4.33
2017-09-16T13:25:44.430Z,2.63
2017-09-16T13:28:16.766Z,3.43
2017-09-16T13:30:42.743Z,2.60
2017-09-16T13:33:29.597Z,1.37
2017-09-16T13:35:55.706Z,3.03
2017-09-16T13:38:21.667Z,1.63
2017-09-16T13:40:47.674Z,2.87
2017-09-16T13:43:17.297Z,1.43
2017-09-16T13:45:43.218Z,1.60
2017-09-16T13:48:09.155Z,2.83
2017-09-16T13:50:35.263Z,1.60
2017-09-16T13:53:01.215Z,1.87
2017-09-16T13:55:27.237Z,3.10
2017-09-16T13:57:53.246Z,2.97
2017-09-16T14:00:19.277Z,3.60
2017-09-16T14:02:45.212Z,2.83
2017-09-16T14:05:11.170Z,6.33
2017-09-16T14:07:37.122Z,2.57
2017-09-16T14:10:03.090Z,2.40
2017-09-16T14:12:29.052Z,3.77
2017-09-16T14:14:55.374Z,1.70
2017-09-16T14:17:21.334Z,2.60
2017-09-16T14:19:47.302Z,2.20
2017-09-16T14:22:13.278Z,2.03
2017-09-16T14:24:39.213Z,1.67
2017-09-16T14:27:08.934Z,3.60
2017-09-16T14:29:34.977Z,5.30
2017-09-16T14:32:01.913Z,2.00
2017-09-16T14:34:27.946Z,2.83
2017-09-16T14:36:54.429Z,3.17
2017-09-16T14:39:28.728Z,4.60
2017-09-16T14:41:56.680Z,6.13
2017-09-16T14:44:32.666Z,9.93
2017-09-16T14:47:09.322Z,2.70
2017-09-16T14:49:41.789Z,3.73
2017-09-16T14:52:08.725Z,7.07
2017-09-16T14:54:34.685Z,4.23
2017-09-16T14:57:16.942Z,4.20
2017-09-16T14:59:43.005Z,3.23
2017-09-16T15:02:08.991Z,3.03
2017-09-16T15:04:40.934Z,7.17
2017-09-16T15:07:08.959Z,6.00
2017-09-16T15:09:50.369Z,5.83
2017-09-16T15:12:16.336Z,7.10
2017-09-16T15:14:59.533Z,9.13
2017-09-16T15:17:41.057Z,5.60
2017-09-16T15:20:07.765Z,6.30
2017-09-16T15:22:42.147Z,3.87
2017-09-16T15:25:08.909Z,5.03
2017-09-16T15:27:40.538Z,6.83
2017-09-16T15:30:09.712Z,5.63
2017-09-16T15:32:52.185Z,3.50
2017-09-16T15:35:20.249Z,9.10
2017-09-16T15:37:46.189Z,3.67
2017-09-16T15:40:14.226Z,8.50
2017-09-16T15:42:49.693Z,7.50
2017-09-16T15:45:19.199Z,4.50
2017-09-16T15:48:07.596Z,3.87
2017-09-16T15:50:49.338Z,4.23
2017-09-16T15:53:30.550Z,2.33
2017-09-16T15:55:56.517Z,3.00
2017-09-16T15:58:29.036Z,2.87
2017-09-16T16:00:58.881Z,4.93
2017-09-16T16:03:26.906Z,2.13
2017-09-16T16:06:17.359Z,1.90
2017-09-16T16:08:44.327Z,6.33
2017-09-16T16:11:25.721Z,2.30
2017-09-16T16:13:55.965Z,2.63
2017-09-16T16:16:30.037Z,4.63
2017-09-16T16:21:50.597Z,6.30
2017-09-16T16:24:16.581Z,3.10
2017-09-16T16:26:57.520Z,4.40
2017-09-16T16:29:23.534Z,4.60
2017-09-16T16:32:10.647Z,7.23
2017-09-16T16:34:38.657Z,6.43
2017-09-16T16:37:07.325Z,2.70
2017-09-16T16:39:33.278Z,2.13
2017-09-16T16:42:04.714Z,1.77
2017-09-16T16:44:30.754Z,2.07
2017-09-16T16:47:09.582Z,1.80
2017-09-16T16:49:36.318Z,3.53
2017-09-16T16:52:02.266Z,3.83
2017-09-16T16:54:35.534Z,5.20
2017-09-16T16:57:05.079Z,2.20
2017-09-16T16:59:31.065Z,2.90
2017-09-16T17:01:57.083Z,2.20
2017-09-16T17:04:23.025Z,2.63
2017-09-16T17:06:48.945Z,3.07
2017-09-16T17:09:14.874Z,2.90
2017-09-16T17:11:40.836Z,5.20
2017-09-16T17:14:08.601Z,3.30
2017-09-16T17:16:35.270Z,5.40
2017-09-16T17:19:01.198Z,3.10
2017-09-16T17:21:27.170Z,2.13
2017-09-16T17:23:55.172Z,2.33
2017-09-16T17:26:26.902Z,1.87
2017-09-16T17:29:04.225Z,2.83
2017-09-16T17:31:34.051Z,1.97
2017-09-16T17:34:15.553Z,3.00
2017-09-16T17:36:55.485Z,2.87
2017-09-16T17:39:21.465Z,2.93
2017-09-16T17:41:47.518Z,2.80
2017-09-16T17:44:21.861Z,6.77
2017-09-16T17:46:48.909Z,5.57
2017-09-16T17:49:14.846Z,3.63
2017-09-16T17:51:51.420Z,5.83
2017-09-16T17:54:20.785Z,3.60
2017-09-16T17:56:56.044Z,3.63
2017-09-16T17:59:29.958Z,3.77
2017-09-16T18:02:08.562Z,4.03
2017-09-16T18:04:35.305Z,6.83
2017-09-16T18:07:06.078Z,18.20
2017-09-16T18:09:35.856Z,5.73
2017-09-16T18:12:01.865Z,3.93
2017-09-16T18:14:28.869Z,3.87
2017-09-16T18:16:56.346Z,3.40
2017-09-16T18:19:22.308Z,3.77
2017-09-16T18:21:48.357Z,3.67
2017-09-16T18:24:32.359Z,2.83
2017-09-16T18:27:08.997Z,6.20
2017-09-16T18:29:36.018Z,4.13
2017-09-16T18:32:18.702Z,3.30
2017-09-16T18:34:49.249Z,3.80
2017-09-16T18:37:15.230Z,2.30
2017-09-16T18:39:44.375Z,11.13
2017-09-16T18:42:10.442Z,12.60
2017-09-16T18:44:40.733Z,5.73
2017-09-16T18:47:06.769Z,7.77
2017-09-16T18:49:57.421Z,4.57
2017-09-16T18:52:26.989Z,3.27
2017-09-16T18:55:04.465Z,5.67
2017-09-16T18:57:30.542Z,9.53
2017-09-16T18:59:56.470Z,5.10
2017-09-16T19:02:29.735Z,4.10
2017-09-16T19:05:07.223Z,3.33
2017-09-16T19:07:55.713Z,4.97
2017-09-16T19:10:36.512Z,9.77
2017-09-16T19:13:10.070Z,3.50
2017-09-16T19:15:36.070Z,3.70
2017-09-16T19:18:06.010Z,5.67
2017-09-16T19:20:36.703Z,3.50
2017-09-16T19:23:03.693Z,3.43
2017-09-16T19:25:40.829Z,4.00
2017-09-16T19:28:11.263Z,3.93
2017-09-16T19:30:44.813Z,2.53
2017-09-16T19:33:24.759Z,4.73
2017-09-16T19:35:58.245Z,4.43
2017-09-16T19:38:25.257Z,4.70
2017-09-16T19:40:51.301Z,4.13
2017-09-16T19:43:25.644Z,5.47
2017-09-16T19:45:56.389Z,3.33
2017-09-16T19:48:24.420Z,9.33
2017-09-16T19:51:11.079Z,4.07
2017-09-16T19:53:39.089Z,4.07
2017-09-16T19:56:12.210Z,4.50
2017-09-16T19:58:38.954Z,7.33
2017-09-16T20:01:05.681Z,4.23
2017-09-16T20:03:32.354Z,4.27
2017-09-16T20:06:09.139Z,4.50
2017-09-16T20:08:45.815Z,5.93
2017-09-16T20:11:16.094Z,3.53
2017-09-16T20:16:39.545Z,3.60
2017-09-16T20:19:05.482Z,3.83
2017-09-16T20:21:31.530Z,7.53
2017-09-16T20:24:08.605Z,3.80
2017-09-16T20:26:34.626Z,4.23
2017-09-16T20:29:00.714Z,5.50
2017-09-16T20:31:32.205Z,2.70
2017-09-16T20:33:58.209Z,4.50
2017-09-16T20:36:24.130Z,3.60
2017-09-16T20:38:50.068Z,4.17
2017-09-16T20:41:15.985Z,3.90
2017-09-16T20:43:47.716Z,4.37
2017-09-16T20:46:25.337Z,3.70
2017-09-16T20:48:55.089Z,9.63
2017-09-16T20:51:21.125Z,5.20
2017-09-16T20:54:07.289Z,12.03
2017-09-16T20:56:33.241Z,4.60
2017-09-16T20:58:59.265Z,3.57
2017-09-16T21:01:25.281Z,3.33
2017-09-16T21:04:01.692Z,6.23
2017-09-16T21:06:34.234Z,6.43
2017-09-16T21:09:00.267Z,6.90
2017-09-16T21:11:26.288Z,4.60
2017-09-16T21:13:53.247Z,4.50
2017-09-16T21:16:19.289Z,9.20
2017-09-16T21:18:55.584Z,4.50
2017-09-16T21:21:35.126Z,6.43
2017-09-16T21:27:00.342Z,3.63
2017-09-16T21:32:30.541Z,6.80
2017-09-16T21:35:08.037Z,6.40
2017-09-16T21:37:56.432Z,5.17
2017-09-16T21:43:16.514Z,7.83
2017-09-16T21:45:55.508Z,5.00
2017-09-16T21:48:28.094Z,9.43
2017-09-16T21:50:58.717Z,6.33
2017-09-16T21:53:29.132Z,10.00
2017-09-16T21:56:19.787Z,6.17
2017-09-16T21:58:50.046Z,8.87
2017-09-16T22:01:23.306Z,5.93
2017-09-16T22:03:50.086Z,6.30
2017-09-16T22:06:21.649Z,5.30
2017-09-16T22:08:50.340Z,6.00
2017-09-16T22:11:37.721Z,6.13
2017-09-16T22:14:07.674Z,8.47
2017-09-16T22:16:38.397Z,5.83
2017-09-16T22:19:17.046Z,5.83
2017-09-16T22:21:46.830Z,7.50
2017-09-16T22:24:12.871Z,7.63
2017-09-16T22:26:39.570Z,5.60
2017-09-16T22:29:13.031Z,5.13
2017-09-16T22:31:40.770Z,6.43
2017-09-16T22:34:15.257Z,5.33
2017-09-16T22:36:59.706Z,4.90
2017-09-16T22:39:29.389Z,6.70
2017-09-16T22:42:13.870Z,5.03
2017-09-16T22:44:40.879Z,4.67
2017-09-16T22:47:15.718Z,5.80
2017-09-16T22:49:53.211Z,5.47
2017-09-16T22:52:25.681Z,7.90
2017-09-16T22:54:56.190Z,8.50
2017-09-16T22:57:24.194Z,6.10
2017-09-16T22:59:54.403Z,6.27
2017-09-16T23:02:21.169Z,4.70
2017-09-16T23:04:51.878Z,7.80
2017-09-16T23:07:22.752Z,6.90
2017-09-16T23:09:55.306Z,6.90
2017-09-16T23:12:22.083Z,7.87
2017-09-16T23:14:49.101Z,7.43
2017-09-16T23:17:19.062Z,9.87
2017-09-16T23:19:48.793Z,11.80
2017-09-16T23:22:21.326Z,11.03
2017-09-16T23:24:48.053Z,8.10
2017-09-16T23:27:26.942Z,9.40
2017-09-16T23:29:56.481Z,12.43
2017-09-16T23:32:40.870Z,7.53
2017-09-16T23:35:13.314Z,7.57
2017-09-16T23:37:41.095Z,6.40
2017-09-16T23:40:11.289Z,5.47
2017-09-16T23:42:37.335Z,6.27
2017-09-16T23:45:06.011Z,8.50
2017-09-16T23:47:32.038Z,10.70
2017-09-16T23:49:58.066Z,6.73
2017-09-16T23:52:24.098Z,12.20
2017-09-16T23:57:49.650Z,6.90
